createdAt,value
2018-12-23T00:00:37.074Z,99.90
2018-12-23T00:03:05.268Z,99.90
2018-12-23T00:05:33.473Z,99.90
2018-12-23T00:08:01.930Z,99.90
2018-12-23T00:10:30.152Z,99.90
2018-12-23T00:12:58.347Z,99.90
2018-12-23T00:15:26.553Z,99.90
2018-12-23T00:17:54.928Z,99.90
2018-12-23T00:20:23.139Z,99.90
2018-12-23T00:22:51.389Z,99.90
2018-12-23T00:25:19.606Z,99.90
2018-12-23T00:27:48.014Z,99.90
2018-12-23T00:30:16.440Z,99.90
2018-12-23T00:32:44.784Z,99.90
2018-12-23T00:35:20.334Z,99.90
2018-12-23T00:37:43.331Z,99.90
2018-12-23T00:40:11.637Z,99.90
2018-12-23T00:42:39.848Z,99.90
2018-12-23T00:45:08.198Z,99.90
2018-12-23T00:47:36.460Z,99.90
2018-12-23T00:50:05.285Z,99.90
2018-12-23T00:52:33.592Z,99.90
2018-12-23T00:55:01.861Z,99.90
2018-12-23T00:57:30.061Z,99.90
2018-12-23T00:59:58.265Z,99.90
2018-12-23T01:02:26.561Z,99.90
2018-12-23T01:04:54.870Z,99.90
2018-12-23T01:07:23.148Z,99.90
2018-12-23T01:09:51.374Z,99.90
2018-12-23T01:12:19.640Z,99.90
2018-12-23T01:14:48.019Z,99.90
2018-12-23T01:17:16.228Z,99.90
2018-12-23T01:19:44.512Z,99.90
2018-12-23T01:22:12.797Z,99.90
2018-12-23T01:24:41.005Z,99.90
2018-12-23T01:27:09.201Z,99.90
2018-12-23T01:29:37.424Z,99.90
2018-12-23T01:32:05.624Z,99.90
2018-12-23T01:34:37.149Z,99.90
2018-12-23T01:37:04.137Z,99.90
2018-12-23T01:39:32.432Z,99.90
2018-12-23T01:42:00.677Z,99.90
2018-12-23T01:44:28.894Z,99.90
2018-12-23T01:46:57.096Z,99.90
2018-12-23T01:49:25.399Z,99.90
2018-12-23T01:51:53.692Z,99.90
2018-12-23T01:54:21.905Z,99.90
2018-12-23T01:56:50.184Z,99.90
2018-12-23T01:59:18.424Z,99.90
2018-12-23T02:01:46.888Z,99.90
2018-12-23T02:04:15.158Z,99.90
2018-12-23T02:06:43.468Z,99.90
2018-12-23T02:09:11.656Z,99.90
2018-12-23T02:11:39.944Z,99.90
2018-12-23T02:14:08.244Z,99.90
2018-12-23T02:16:36.451Z,99.90
2018-12-23T02:19:04.747Z,99.90
2018-12-23T02:21:33.051Z,99.90
2018-12-23T02:24:01.258Z,99.90
2018-12-23T02:26:29.444Z,99.90
2018-12-23T02:28:57.676Z,99.90
2018-12-23T02:31:25.976Z,99.90
2018-12-23T02:33:54.253Z,99.90
2018-12-23T02:36:22.464Z,99.90
2018-12-23T02:38:50.678Z,99.90
2018-12-23T02:41:18.951Z,99.90
2018-12-23T02:43:47.172Z,99.90
2018-12-23T02:46:15.378Z,99.90
2018-12-23T02:48:43.651Z,99.90
2018-12-23T02:51:11.979Z,99.90
2018-12-23T02:53:40.255Z,99.90
2018-12-23T02:56:08.620Z,99.90
2018-12-23T02:58:36.830Z,99.90
2018-12-23T03:01:05.104Z,99.90
2018-12-23T03:03:33.305Z,99.90
2018-12-23T03:06:06.236Z,99.90
2018-12-23T03:08:31.721Z,99.90
2018-12-23T03:10:59.931Z,99.90
2018-12-23T03:13:28.203Z,99.90
2018-12-23T03:15:56.399Z,99.90
2018-12-23T03:18:24.648Z,99.90
2018-12-23T03:20:52.941Z,99.90
2018-12-23T03:23:21.143Z,99.90
2018-12-23T03:25:49.350Z,99.90
2018-12-23T03:28:17.656Z,99.90
2018-12-23T03:30:45.865Z,99.90
2018-12-23T03:33:14.251Z,99.90
2018-12-23T03:35:42.616Z,99.90
2018-12-23T03:38:10.915Z,99.90
2018-12-23T03:40:39.107Z,99.90
2018-12-23T03:43:07.328Z,99.90
2018-12-23T03:45:35.525Z,99.90
2018-12-23T03:48:03.732Z,99.90
2018-12-23T03:50:32.029Z,99.90
2018-12-23T03:53:00.315Z,99.90
2018-12-23T03:55:28.668Z,99.90
2018-12-23T03:57:56.877Z,99.90
2018-12-23T04:00:25.087Z,99.90
2018-12-23T04:02:53.368Z,99.90
2018-12-23T04:05:21.700Z,99.90
2018-12-23T04:07:49.903Z,99.90
2018-12-23T04:10:18.109Z,99.90
2018-12-23T04:12:46.398Z,99.90
2018-12-23T04:15:14.687Z,99.90
2018-12-23T04:17:42.881Z,99.90
2018-12-23T04:20:11.110Z,99.90
2018-12-23T04:22:39.406Z,99.90
2018-12-23T04:25:07.603Z,99.90
2018-12-23T04:27:35.920Z,99.90
2018-12-23T04:30:04.395Z,99.90
2018-12-23T04:32:32.599Z,99.90
2018-12-23T04:35:00.973Z,99.90
2018-12-23T04:37:29.184Z,99.90
2018-12-23T04:39:57.386Z,99.90
2018-12-23T04:42:25.757Z,99.90
2018-12-23T04:44:54.040Z,99.90
2018-12-23T04:47:22.323Z,99.90
2018-12-23T04:49:50.719Z,99.90
2018-12-23T04:52:18.994Z,99.90
2018-12-23T04:54:47.192Z,99.90
2018-12-23T04:57:15.409Z,99.90
2018-12-23T04:59:43.637Z,99.90
2018-12-23T05:02:11.937Z,99.90
2018-12-23T05:04:40.170Z,99.90
2018-12-23T05:07:08.384Z,99.90
2018-12-23T05:09:36.604Z,99.90
2018-12-23T05:12:04.817Z,99.90
2018-12-23T05:14:33.102Z,99.90
2018-12-23T05:17:01.376Z,99.90
2018-12-23T05:19:29.993Z,99.90
2018-12-23T05:21:58.221Z,99.90
2018-12-23T05:24:26.424Z,99.90
2018-12-23T05:26:54.738Z,99.90
2018-12-23T05:29:22.940Z,99.90
2018-12-23T05:31:57.684Z,99.90
2018-12-23T05:34:25.907Z,99.90
2018-12-23T05:36:54.316Z,99.90
2018-12-23T05:39:22.548Z,99.90
2018-12-23T05:41:50.800Z,99.90
2018-12-23T05:44:19.004Z,99.90
2018-12-23T05:46:47.300Z,99.90
2018-12-23T05:49:15.505Z,99.90
2018-12-23T05:51:43.708Z,99.90
2018-12-23T05:54:11.929Z,99.90
2018-12-23T05:56:40.130Z,99.90
2018-12-23T05:59:08.351Z,99.90
2018-12-23T06:01:36.753Z,99.90
2018-12-23T06:04:04.960Z,99.90
2018-12-23T06:06:33.152Z,99.90
2018-12-23T06:09:01.719Z,99.90
2018-12-23T06:11:29.932Z,99.90
2018-12-23T06:13:58.133Z,99.90
2018-12-23T06:16:26.458Z,99.90
2018-12-23T06:18:54.661Z,99.90
2018-12-23T06:21:22.860Z,99.90
2018-12-23T06:23:51.160Z,99.90
2018-12-23T06:26:19.365Z,99.90
2018-12-23T06:28:47.560Z,99.90
2018-12-23T06:31:15.889Z,99.90
2018-12-23T06:33:44.101Z,99.90
2018-12-23T06:36:12.302Z,99.90
2018-12-23T06:38:40.609Z,99.90
2018-12-23T06:41:08.973Z,99.90
2018-12-23T06:43:37.290Z,99.90
2018-12-23T06:46:05.573Z,99.90
2018-12-23T06:48:35.539Z,99.90
2018-12-23T06:51:03.980Z,99.90
2018-12-23T06:53:32.324Z,99.90
2018-12-23T06:56:00.536Z,99.90
2018-12-23T06:58:28.747Z,99.90
2018-12-23T07:00:57.056Z,99.90
2018-12-23T07:03:25.265Z,99.90
2018-12-23T07:05:53.480Z,99.90
2018-12-23T07:08:21.725Z,99.90
2018-12-23T07:10:50.025Z,99.90
2018-12-23T07:13:18.329Z,99.90
2018-12-23T07:15:53.136Z,99.90
2018-12-23T07:18:21.340Z,99.90
2018-12-23T07:20:49.558Z,99.90
2018-12-23T07:23:17.856Z,99.90
2018-12-23T07:25:46.073Z,99.90
2018-12-23T07:28:14.290Z,99.90
2018-12-23T07:30:42.794Z,99.90
2018-12-23T07:33:11.175Z,99.90
2018-12-23T07:35:39.386Z,99.90
2018-12-23T07:38:07.601Z,99.90
2018-12-23T07:40:35.826Z,99.90
2018-12-23T07:43:04.037Z,99.90
2018-12-23T07:45:32.507Z,99.90
2018-12-23T07:48:00.835Z,99.90
2018-12-23T07:50:29.036Z,99.90
2018-12-23T07:52:57.277Z,99.90
2018-12-23T07:55:25.561Z,99.90
2018-12-23T07:57:53.780Z,99.90
2018-12-23T08:00:22.101Z,99.90
2018-12-23T08:02:50.304Z,99.90
2018-12-23T08:05:18.525Z,99.90
2018-12-23T08:07:46.820Z,99.90
2018-12-23T08:10:15.037Z,99.90
2018-12-23T08:12:43.247Z,99.90
2018-12-23T08:15:11.557Z,99.90
2018-12-23T08:17:39.757Z,99.90
2018-12-23T08:20:08.075Z,99.90
2018-12-23T08:22:36.376Z,99.90
2018-12-23T08:25:04.789Z,99.90
2018-12-23T08:27:33.005Z,99.90
2018-12-23T08:30:01.284Z,99.90
2018-12-23T08:32:29.517Z,99.90
2018-12-23T08:34:57.734Z,99.90
2018-12-23T08:37:26.000Z,99.90
2018-12-23T08:39:54.301Z,99.90
2018-12-23T08:42:22.514Z,99.90
2018-12-23T08:44:51.059Z,99.90
2018-12-23T08:47:19.288Z,99.90
2018-12-23T08:49:47.639Z,99.90
2018-12-23T08:52:15.947Z,99.90
2018-12-23T08:54:44.209Z,99.90
2018-12-23T08:57:12.430Z,99.90
2018-12-23T08:59:40.798Z,99.90
2018-12-23T09:02:09.009Z,99.90
2018-12-23T09:04:37.269Z,99.90
2018-12-23T09:07:05.746Z,99.90
2018-12-23T09:09:34.043Z,99.90
2018-12-23T09:12:02.335Z,99.90
2018-12-23T09:14:30.585Z,99.90
2018-12-23T09:16:58.830Z,99.90
2018-12-23T09:19:27.065Z,99.90
2018-12-23T09:21:55.595Z,99.90
2018-12-23T09:24:23.859Z,99.90
2018-12-23T09:26:52.097Z,99.90
2018-12-23T09:29:20.374Z,99.90
2018-12-23T09:31:48.586Z,99.90
2018-12-23T09:34:16.795Z,99.90
2018-12-23T09:36:45.093Z,99.90
2018-12-23T09:39:13.328Z,99.90
2018-12-23T09:41:41.601Z,99.90
2018-12-23T09:44:09.902Z,99.90
2018-12-23T09:46:38.091Z,99.90
2018-12-23T09:49:06.293Z,99.90
2018-12-23T09:51:34.527Z,99.90
2018-12-23T09:54:02.763Z,99.90
2018-12-23T09:56:31.021Z,99.90
2018-12-23T09:58:59.326Z,99.90
2018-12-23T10:01:27.582Z,99.90
2018-12-23T10:03:55.853Z,99.20
2018-12-23T10:06:24.082Z,99.90
2018-12-23T10:08:52.355Z,99.80
2018-12-23T10:11:20.553Z,99.20
2018-12-23T10:13:48.775Z,99.50
2018-12-23T10:16:16.977Z,99.60
2018-12-23T10:18:45.181Z,99.20
2018-12-23T10:21:13.709Z,98.40
2018-12-23T10:23:41.897Z,99.50
2018-12-23T10:26:10.105Z,99.30
2018-12-23T10:28:38.397Z,99.10
2018-12-23T10:31:06.684Z,99.10
2018-12-23T10:33:34.888Z,99.40
2018-12-23T10:36:03.183Z,99.30
2018-12-23T10:38:31.429Z,99.80
2018-12-23T10:40:59.704Z,99.50
2018-12-23T10:43:27.914Z,99.20
2018-12-23T10:45:56.199Z,99.30
2018-12-23T10:48:24.392Z,98.70
2018-12-23T10:50:52.604Z,99.30
2018-12-23T10:53:20.805Z,99.50
2018-12-23T10:55:49.092Z,98.80
2018-12-23T10:58:17.385Z,99.00
2018-12-23T11:00:45.588Z,98.80
2018-12-23T11:03:13.785Z,99.60
2018-12-23T11:05:42.021Z,98.60
2018-12-23T11:08:10.224Z,98.70
2018-12-23T11:10:38.500Z,98.80
2018-12-23T11:13:06.717Z,99.20
2018-12-23T11:15:34.996Z,99.50
2018-12-23T11:18:03.317Z,99.70
2018-12-23T11:20:31.609Z,99.80
2018-12-23T11:22:59.798Z,99.50
2018-12-23T11:25:28.000Z,99.90
2018-12-23T11:27:56.210Z,99.90
2018-12-23T11:30:24.404Z,99.90
2018-12-23T11:32:52.600Z,99.90
2018-12-23T11:35:20.812Z,99.90
2018-12-23T11:37:49.008Z,99.90
2018-12-23T11:40:17.207Z,99.90
2018-12-23T11:42:45.528Z,99.90
2018-12-23T11:45:13.724Z,99.90
2018-12-23T11:47:41.916Z,99.90
2018-12-23T11:50:10.153Z,99.90
2018-12-23T11:52:38.415Z,99.90
2018-12-23T11:55:06.816Z,99.90
2018-12-23T11:57:35.124Z,99.90
2018-12-23T12:00:03.510Z,99.90
2018-12-23T12:02:31.790Z,99.90
2018-12-23T12:05:00.155Z,99.90
2018-12-23T12:07:28.356Z,99.90
2018-12-23T12:09:56.645Z,99.90
2018-12-23T12:12:25.052Z,99.90
2018-12-23T12:14:53.340Z,99.90
2018-12-23T12:17:21.544Z,99.90
2018-12-23T12:19:49.764Z,99.90
2018-12-23T12:22:17.960Z,99.90
2018-12-23T12:24:46.157Z,99.90
2018-12-23T12:27:14.361Z,99.90
2018-12-23T12:29:42.604Z,99.90
2018-12-23T12:32:10.879Z,99.90
2018-12-23T12:34:39.224Z,99.90
2018-12-23T12:37:07.501Z,99.90
2018-12-23T12:39:35.701Z,99.90
2018-12-23T12:42:04.021Z,99.90
2018-12-23T12:44:32.259Z,99.90
2018-12-23T12:47:00.431Z,99.90
2018-12-23T12:49:28.989Z,99.90
2018-12-23T12:51:57.185Z,99.90
2018-12-23T12:54:25.391Z,99.90
2018-12-23T12:56:53.688Z,99.90
2018-12-23T12:59:21.917Z,99.90
2018-12-23T13:01:50.124Z,99.90
2018-12-23T13:04:18.328Z,99.90
2018-12-23T13:06:46.528Z,99.90
2018-12-23T13:09:14.728Z,99.90
2018-12-23T13:11:43.048Z,99.90
2018-12-23T13:14:11.248Z,99.90
2018-12-23T13:16:39.541Z,99.90
2018-12-23T13:19:07.824Z,99.90
2018-12-23T13:21:36.085Z,99.90
2018-12-23T13:24:04.292Z,99.90
2018-12-23T13:26:32.568Z,99.90
2018-12-23T13:29:00.796Z,99.90
2018-12-23T13:31:28.988Z,99.90
2018-12-23T13:33:57.237Z,99.90
2018-12-23T13:36:25.520Z,99.90
2018-12-23T13:38:53.805Z,99.90
2018-12-23T13:41:42.936Z,99.90
2018-12-23T13:44:36.348Z,99.90
2018-12-23T13:48:22.706Z,99.90
2018-12-23T13:51:01.029Z,99.90
2018-12-23T13:53:42.931Z,99.90
2018-12-23T13:57:25.396Z,99.90
2018-12-23T14:00:15.420Z,99.90
2018-12-23T14:03:08.157Z,99.90
2018-12-23T14:05:47.812Z,99.90
2018-12-23T14:09:26.271Z,99.90
2018-12-23T14:11:55.329Z,99.90
2018-12-23T14:14:23.735Z,99.90
2018-12-23T14:16:52.245Z,99.90
2018-12-23T14:19:20.484Z,99.90
2018-12-23T14:21:48.861Z,99.90
2018-12-23T14:24:17.096Z,99.90
2018-12-23T14:26:45.391Z,99.90
2018-12-23T14:29:13.589Z,99.90
2018-12-23T14:31:41.869Z,99.90
2018-12-23T14:34:10.241Z,99.90
2018-12-23T14:36:38.524Z,99.90
2018-12-23T14:39:08.064Z,99.90
2018-12-23T14:41:36.339Z,99.90
2018-12-23T14:44:04.564Z,99.90
2018-12-23T14:46:32.764Z,99.90
2018-12-23T14:49:01.056Z,99.90
2018-12-23T14:51:29.253Z,99.90
2018-12-23T14:53:57.496Z,99.90
2018-12-23T14:56:25.880Z,99.90
2018-12-23T14:58:54.439Z,99.90
2018-12-23T15:01:23.249Z,99.90
2018-12-23T15:03:51.540Z,99.90
2018-12-23T15:06:19.739Z,99.90
2018-12-23T15:08:47.950Z,99.90
2018-12-23T15:11:16.256Z,99.90
2018-12-23T15:13:44.489Z,99.90
2018-12-23T15:16:12.880Z,99.90
2018-12-23T15:18:43.318Z,99.90
2018-12-23T15:21:11.672Z,99.90
2018-12-23T15:23:40.094Z,99.90
2018-12-23T15:26:08.524Z,99.90
2018-12-23T15:28:36.908Z,99.90
2018-12-23T15:31:06.241Z,99.90
2018-12-23T15:33:34.985Z,99.90
2018-12-23T15:36:03.765Z,99.90
2018-12-23T15:38:32.488Z,99.90
2018-12-23T15:46:47.293Z,99.90
2018-12-23T15:49:15.555Z,99.90
2018-12-23T15:51:43.749Z,99.90
2018-12-23T15:54:11.996Z,99.90
2018-12-23T15:56:40.202Z,99.90
2018-12-23T15:59:08.393Z,99.90
2018-12-23T16:01:36.944Z,99.90
2018-12-23T16:04:05.138Z,99.90
2018-12-23T16:06:33.410Z,99.90
2018-12-23T16:09:01.623Z,99.90
2018-12-23T16:11:29.841Z,99.90
2018-12-23T16:13:58.107Z,99.90
2018-12-23T16:16:26.319Z,99.90
2018-12-23T16:18:54.521Z,99.90
2018-12-23T16:21:22.704Z,99.90
2018-12-23T16:23:50.927Z,99.90
2018-12-23T16:26:19.120Z,99.90
2018-12-23T16:28:47.321Z,99.90
2018-12-23T16:31:15.643Z,99.90
2018-12-23T16:33:43.840Z,99.90
2018-12-23T16:36:12.032Z,99.90
2018-12-23T16:38:40.240Z,99.90
2018-12-23T16:41:08.428Z,99.90
2018-12-23T16:43:36.648Z,99.90
2018-12-23T16:46:04.852Z,99.90
2018-12-23T16:48:33.117Z,99.90
2018-12-23T16:51:01.383Z,99.90
2018-12-23T16:53:29.708Z,99.90
2018-12-23T16:55:57.909Z,99.90
2018-12-23T16:58:26.133Z,99.90
2018-12-23T17:00:54.323Z,99.90
2018-12-23T17:03:22.534Z,99.90
2018-12-23T17:05:50.733Z,99.90
2018-12-23T17:08:19.068Z,99.90
2018-12-23T17:10:47.273Z,99.90
2018-12-23T17:13:15.460Z,99.90
2018-12-23T17:15:43.660Z,99.90
2018-12-23T17:18:12.648Z,99.90
2018-12-23T17:20:40.852Z,99.90
2018-12-23T17:23:09.088Z,99.90
2018-12-23T17:25:37.349Z,99.90
2018-12-23T17:28:05.699Z,99.90
2018-12-23T17:30:34.029Z,99.90
2018-12-23T17:33:02.240Z,99.90
2018-12-23T17:35:30.534Z,99.90
2018-12-23T17:37:58.754Z,99.90
2018-12-23T17:40:26.971Z,99.90
2018-12-23T17:42:55.196Z,99.90
2018-12-23T17:45:23.417Z,99.90
2018-12-23T17:47:51.651Z,99.90
2018-12-23T17:50:19.953Z,99.90
2018-12-23T17:52:48.174Z,99.90
2018-12-23T17:55:16.377Z,99.90
2018-12-23T17:57:44.598Z,99.90
2018-12-23T18:00:13.013Z,99.90
2018-12-23T18:02:41.237Z,99.90
2018-12-23T18:05:09.460Z,99.90
2018-12-23T18:07:37.769Z,99.90
2018-12-23T18:10:07.039Z,99.90
2018-12-23T18:12:35.262Z,99.90
2018-12-23T18:15:03.993Z,99.90
2018-12-23T18:17:32.283Z,99.90
2018-12-23T18:20:00.576Z,99.90
2018-12-23T18:22:28.868Z,99.90
2018-12-23T18:24:57.099Z,99.90
2018-12-23T18:27:25.332Z,99.90
2018-12-23T18:29:53.540Z,99.90
2018-12-23T18:32:21.741Z,99.90
2018-12-23T18:34:49.956Z,99.90
2018-12-23T18:37:18.193Z,99.90
2018-12-23T18:39:46.421Z,99.90
2018-12-23T18:42:14.622Z,99.90
2018-12-23T18:44:42.831Z,99.90
2018-12-23T18:47:11.791Z,99.90
2018-12-23T18:49:40.577Z,99.90
2018-12-23T18:52:08.821Z,99.90
2018-12-23T18:54:37.023Z,99.90
2018-12-23T18:57:08.487Z,99.90
2018-12-23T18:59:41.412Z,99.90
2018-12-23T19:02:13.641Z,99.90
2018-12-23T19:04:42.299Z,99.90
2018-12-23T19:07:10.588Z,99.90
2018-12-23T19:10:08.890Z,99.90
2018-12-23T19:12:51.833Z,99.90
2018-12-23T19:15:34.704Z,99.90
2018-12-23T19:19:21.653Z,99.90
2018-12-23T19:22:06.109Z,99.90
2018-12-23T19:24:49.005Z,99.90
2018-12-23T19:27:45.833Z,99.90
2018-12-23T19:30:25.517Z,99.90
2018-12-23T19:33:05.986Z,99.90
2018-12-23T19:35:46.973Z,99.90
2018-12-23T19:38:28.869Z,99.90
2018-12-23T19:41:46.655Z,99.90
2018-12-23T19:44:28.365Z,99.90
2018-12-23T19:47:10.825Z,99.90
2018-12-23T19:49:51.511Z,99.90
2018-12-23T19:52:29.794Z,99.90
2018-12-23T19:55:10.020Z,99.90
2018-12-23T19:57:52.491Z,99.90
2018-12-23T20:00:46.584Z,99.90
2018-12-23T20:03:30.957Z,99.90
2018-12-23T20:06:12.101Z,99.90
2018-12-23T20:10:14.599Z,99.90
2018-12-23T20:12:56.609Z,99.90
2018-12-23T20:15:35.011Z,99.90
2018-12-23T20:18:17.125Z,99.90
2018-12-23T20:20:57.045Z,99.90
2018-12-23T20:23:36.612Z,99.90
2018-12-23T20:26:18.660Z,99.90
2018-12-23T20:31:02.048Z,99.90
2018-12-23T20:36:42.106Z,99.90
2018-12-23T20:39:19.301Z,99.90
2018-12-23T20:42:05.936Z,99.90
2018-12-23T20:46:53.008Z,99.90
2018-12-23T20:51:35.241Z,99.90
2018-12-23T20:54:22.836Z,99.90
2018-12-23T20:59:40.056Z,99.90
2018-12-23T21:02:18.001Z,99.90
2018-12-23T21:05:05.555Z,99.90
2018-12-23T21:07:52.797Z,99.90
2018-12-23T21:10:31.346Z,99.90
2018-12-23T21:13:11.730Z,99.90
2018-12-23T21:15:56.124Z,99.90
2018-12-23T21:19:06.143Z,99.90
2018-12-23T21:23:52.263Z,99.90
2018-12-23T21:26:31.557Z,99.90
2018-12-23T21:30:12.125Z,99.90
2018-12-23T21:35:29.104Z,99.90
2018-12-23T21:38:16.440Z,99.90
2018-12-23T21:41:03.744Z,99.90
2018-12-23T21:45:47.477Z,99.90
2018-12-23T21:48:33.056Z,99.90
2018-12-23T21:51:11.429Z,99.90
2018-12-23T21:53:52.571Z,99.90
2018-12-23T21:56:32.304Z,99.90
2018-12-23T21:59:11.295Z,99.90
2018-12-23T22:01:59.577Z,99.90
2018-12-23T22:05:10.260Z,99.90
2018-12-23T22:07:54.692Z,99.90
2018-12-23T22:11:02.724Z,99.90
2018-12-23T22:13:30.953Z,99.90
2018-12-23T22:15:59.168Z,99.90
2018-12-23T22:18:27.857Z,99.90
2018-12-23T22:20:56.709Z,99.90
2018-12-23T22:23:26.213Z,99.90
2018-12-23T22:25:55.738Z,99.90
2018-12-23T22:28:25.848Z,99.90
2018-12-23T22:30:54.048Z,99.90
2018-12-23T22:33:22.327Z,99.90
2018-12-23T22:35:50.536Z,99.90
2018-12-23T22:38:18.754Z,99.90
2018-12-23T22:40:51.620Z,99.90
2018-12-23T22:43:19.962Z,99.90
2018-12-23T22:45:48.180Z,99.90
2018-12-23T22:48:16.498Z,99.90
2018-12-23T22:50:44.696Z,99.90
2018-12-23T22:53:12.944Z,99.90
2018-12-23T22:55:41.161Z,99.90
2018-12-23T22:58:09.384Z,99.90
2018-12-23T23:00:37.715Z,99.90
2018-12-23T23:03:09.309Z,99.90
2018-12-23T23:05:36.215Z,99.90
2018-12-23T23:08:04.408Z,99.90
2018-12-23T23:10:32.624Z,99.90
2018-12-23T23:13:00.918Z,99.90
2018-12-23T23:15:29.202Z,99.90
2018-12-23T23:18:45.544Z,99.90
2018-12-23T23:21:14.489Z,99.90
2018-12-23T23:23:43.365Z,99.90
2018-12-23T23:26:12.320Z,99.90
2018-12-23T23:28:41.258Z,99.90
2018-12-23T23:31:10.269Z,99.90
2018-12-23T23:33:39.185Z,99.90
2018-12-23T23:36:08.177Z,99.90
2018-12-23T23:38:37.113Z,99.90
2018-12-23T23:41:06.141Z,99.90
2018-12-23T23:43:35.145Z,99.90
2018-12-23T23:46:04.154Z,99.90
2018-12-23T23:48:33.190Z,99.90
2018-12-23T23:51:02.190Z,99.90
2018-12-23T23:53:31.061Z,99.90
2018-12-23T23:56:00.104Z,99.90
2018-12-23T23:58:29.350Z,99.90
